Real del Padre, Argentina
Current Conditions -  °F | °C
As of 5:00 PM on Saturday 25 Oct 2014 (Local Time) from SAME Reporting Station
Few Clouds Few Clouds  
Wind Chill: 91°   Ceiling: Unl
Heat Index: 91°   Visibility: 6mi
Dew Point: 59°   Wind: 8mph
Humidity: 34%   Direction: 360°N
Pressure: 29.71"   Gusts: NA
Location:  34.83°S, 67.77°W
Report Text: SAME 252000Z 36007KT 9999 FEW040 33/15 Q1006
Loading
Personal Weather Stations






























Interactive Weather Map
Tropical Storm Tracking
New forecast layout! Learn more

10-Day Weather Forecast

Advertisements
Track Severe Weather on mobile